createdAt,value
2019-05-13T00:01:23.317Z,102503.34
2019-05-13T00:04:09.556Z,102503.22
2019-05-13T00:06:57.786Z,102501.98
2019-05-13T00:09:44.320Z,102499.86
2019-05-13T00:12:30.721Z,102509.11
2019-05-13T00:15:17.050Z,102508.48
2019-05-13T00:18:04.269Z,102504.98
2019-05-13T00:20:50.546Z,102509.48
2019-05-13T00:23:36.680Z,102511.70
2019-05-13T00:26:24.437Z,102505.73
2019-05-13T00:29:10.596Z,102506.36
2019-05-13T00:31:56.760Z,102509.87
2019-05-13T00:34:44.506Z,102500.68
2019-05-13T00:37:33.273Z,102504.61
2019-05-13T00:40:19.080Z,102508.72
2019-05-13T00:43:05.305Z,102514.92
2019-05-13T00:45:53.390Z,102521.35
2019-05-13T00:48:39.805Z,102507.41
2019-05-13T00:51:26.077Z,102514.45
2019-05-13T00:54:13.342Z,102507.03
2019-05-13T00:56:59.615Z,102512.23
2019-05-13T00:59:45.829Z,102510.23
2019-05-13T01:02:33.819Z,102507.63
2019-05-13T01:05:19.964Z,102513.22
2019-05-13T01:08:06.113Z,102514.22
2019-05-13T01:10:53.649Z,102512.71
2019-05-13T01:13:40.128Z,102517.85
2019-05-13T01:16:26.383Z,102514.40
2019-05-13T01:19:14.320Z,102515.41
2019-05-13T01:22:00.588Z,102514.55
2019-05-13T01:24:46.680Z,102510.71
2019-05-13T01:27:33.447Z,102513.45
2019-05-13T01:30:19.813Z,102512.34
2019-05-13T01:33:05.878Z,102516.23
2019-05-13T01:35:53.779Z,102513.71
2019-05-13T01:38:40.410Z,102507.98
2019-05-13T01:41:26.818Z,102514.04
2019-05-13T01:44:14.020Z,102521.37
2019-05-13T01:47:00.257Z,102513.91
2019-05-13T01:49:46.473Z,102513.27
2019-05-13T01:52:34.359Z,102514.95
2019-05-13T01:55:20.547Z,102517.67
2019-05-13T01:58:06.658Z,102518.97
2019-05-13T02:00:55.279Z,102513.78
2019-05-13T02:03:41.088Z,102510.00
2019-05-13T02:06:27.249Z,102523.86
2019-05-13T02:09:14.205Z,102516.45
2019-05-13T02:12:00.652Z,102513.89
2019-05-13T02:14:46.847Z,102508.31
2019-05-13T02:17:33.745Z,102513.83
2019-05-13T02:20:19.914Z,102508.94
2019-05-13T02:23:05.978Z,102511.95
2019-05-13T02:25:54.205Z,102509.34
2019-05-13T02:28:40.263Z,102509.86
2019-05-13T02:31:40.009Z,102518.96
2019-05-13T02:34:14.803Z,102525.53
2019-05-13T02:37:03.337Z,102532.04
2019-05-13T02:39:49.093Z,102530.29
2019-05-13T02:42:35.380Z,102537.56
2019-05-13T02:45:22.759Z,102535.49
2019-05-13T02:48:12.431Z,102537.19
2019-05-13T02:50:57.342Z,102533.62
2019-05-13T02:53:43.884Z,102534.59
2019-05-13T02:56:32.843Z,102537.20
2019-05-13T02:59:18.371Z,102535.49
2019-05-13T03:02:04.908Z,102538.61
2019-05-13T03:04:52.347Z,102535.17
2019-05-13T03:07:42.222Z,102536.02
2019-05-13T03:10:26.672Z,102549.88
2019-05-13T03:13:12.981Z,102552.45
2019-05-13T03:16:13.144Z,102554.60
2019-05-13T03:19:02.585Z,102556.35
2019-05-13T03:21:47.918Z,102553.61
2019-05-13T03:24:34.106Z,102559.14
2019-05-13T03:27:24.637Z,102562.72
2019-05-13T03:30:08.575Z,102565.86
2019-05-13T03:33:01.234Z,102568.48
2019-05-13T03:35:45.376Z,102576.27
2019-05-13T03:38:32.895Z,102578.77
2019-05-13T03:41:18.676Z,102584.80
2019-05-13T03:44:08.892Z,102583.52
2019-05-13T03:46:56.745Z,102576.33
2019-05-13T03:49:43.634Z,102573.67
2019-05-13T03:52:33.288Z,102579.03
2019-05-13T03:55:18.411Z,102571.91
2019-05-13T03:58:04.640Z,102575.27
2019-05-13T04:00:51.896Z,102577.44
2019-05-13T04:03:38.058Z,102578.67
2019-05-13T04:06:24.435Z,102576.09
2019-05-13T04:09:24.093Z,102584.69
2019-05-13T04:11:58.616Z,102575.31
2019-05-13T04:14:44.987Z,102572.43
2019-05-13T04:17:32.046Z,102573.22
2019-05-13T04:20:18.580Z,102565.66
2019-05-13T04:23:05.049Z,102574.59
2019-05-13T04:25:53.657Z,102565.78
2019-05-13T04:28:39.457Z,102570.05
2019-05-13T04:31:25.792Z,102565.98
2019-05-13T04:34:12.494Z,102565.48
2019-05-13T04:36:58.970Z,102564.02
2019-05-13T04:39:51.790Z,102576.45
2019-05-13T04:42:33.639Z,102573.75
2019-05-13T04:45:23.491Z,102571.63
2019-05-13T04:48:08.343Z,102562.66
2019-05-13T04:50:54.864Z,102571.37
2019-05-13T04:53:42.495Z,102572.27
2019-05-13T04:56:28.922Z,102569.66
2019-05-13T04:59:15.862Z,102566.98
2019-05-13T05:02:56.142Z,102560.48
2019-05-13T05:06:12.861Z,102558.95
2019-05-13T05:09:08.695Z,102547.21
2019-05-13T05:12:22.902Z,102551.33
2019-05-13T05:15:28.961Z,102557.08
2019-05-13T05:18:52.679Z,102562.89
2019-05-13T05:21:58.029Z,102560.11
2019-05-13T05:25:15.092Z,102560.89
2019-05-13T05:28:22.561Z,102557.87
2019-05-13T05:31:27.740Z,102574.70
2019-05-13T05:35:05.223Z,102562.98
2019-05-13T05:38:26.144Z,102567.41
2019-05-13T05:41:16.261Z,102571.95
2019-05-13T05:44:02.710Z,102589.39
2019-05-13T05:46:51.510Z,102590.13
2019-05-13T05:49:41.090Z,102599.89
2019-05-13T05:52:28.952Z,102577.91
2019-05-13T05:55:15.400Z,102589.56
2019-05-13T05:58:05.765Z,102580.84
2019-05-13T06:00:54.551Z,102579.11
2019-05-13T06:03:41.826Z,102578.39
2019-05-13T06:06:28.718Z,102579.27
2019-05-13T06:09:15.978Z,102581.52
2019-05-13T06:12:02.011Z,102573.77
2019-05-13T06:14:48.171Z,102585.20
2019-05-13T06:17:35.286Z,102573.95
2019-05-13T06:20:21.275Z,102564.27
2019-05-13T06:23:07.351Z,102569.59
2019-05-13T06:25:53.588Z,102568.26
2019-05-13T06:28:41.462Z,102567.54
2019-05-13T06:31:27.920Z,102571.08
2019-05-13T06:34:14.216Z,102590.27
2019-05-13T06:37:01.758Z,102583.44
2019-05-13T06:39:48.500Z,102572.27
2019-05-13T06:42:34.701Z,102575.70
2019-05-13T06:45:21.633Z,102569.80
2019-05-13T06:48:08.100Z,102555.40
2019-05-13T06:50:56.270Z,102560.48
2019-05-13T06:53:42.281Z,102581.59
2019-05-13T06:56:28.520Z,102590.39
2019-05-13T06:59:14.700Z,102570.91
2019-05-13T07:02:02.146Z,102564.61
2019-05-13T07:04:48.669Z,102592.98
2019-05-13T07:07:36.578Z,102601.43
2019-05-13T07:10:24.960Z,102591.14
2019-05-13T07:13:11.675Z,102571.66
2019-05-13T07:16:01.565Z,102588.52
2019-05-13T07:18:47.917Z,102586.89
2019-05-13T07:21:34.201Z,102594.12
2019-05-13T07:24:21.426Z,102602.70
2019-05-13T07:27:07.597Z,102599.58
2019-05-13T07:29:55.724Z,102597.52
2019-05-13T07:32:42.166Z,102598.90
2019-05-13T07:35:32.283Z,102603.83
2019-05-13T07:38:17.735Z,102603.96
2019-05-13T07:41:05.552Z,102589.11
2019-05-13T07:43:52.036Z,102581.17
2019-05-13T07:46:38.894Z,102604.22
2019-05-13T07:49:25.136Z,102574.89
2019-05-13T07:52:22.789Z,102556.29
2019-05-13T07:55:14.235Z,102556.42
2019-05-13T07:58:02.123Z,102573.34
2019-05-13T08:00:48.718Z,102561.63
2019-05-13T08:03:34.877Z,102552.19
2019-05-13T08:06:22.004Z,102570.83
2019-05-13T08:09:12.588Z,102578.54
2019-05-13T08:12:06.390Z,102580.34
2019-05-13T08:14:45.976Z,102573.30
2019-05-13T08:17:32.752Z,102558.17
2019-05-13T08:20:21.913Z,102560.18
2019-05-13T08:23:07.376Z,102558.73
2019-05-13T08:25:53.597Z,102546.95
2019-05-13T08:28:56.528Z,102560.17
2019-05-13T08:31:32.445Z,102560.23
2019-05-13T08:34:22.400Z,102541.47
2019-05-13T08:37:07.676Z,102522.53
2019-05-13T08:39:54.163Z,102531.13
2019-05-13T08:42:41.535Z,102547.91
2019-05-13T08:45:28.356Z,102530.53
2019-05-13T08:48:14.719Z,102530.46
2019-05-13T08:51:03.221Z,102542.37
2019-05-13T08:53:51.696Z,102559.23
2019-05-13T08:56:38.517Z,102566.74
2019-05-13T08:59:24.722Z,102572.55
2019-05-13T09:02:11.527Z,102580.11
2019-05-13T09:05:02.120Z,102548.22
2019-05-13T09:07:47.874Z,102537.45
2019-05-13T09:10:34.537Z,102526.77
2019-05-13T09:13:22.345Z,102519.02
2019-05-13T09:16:08.555Z,102526.19
2019-05-13T09:18:54.795Z,102524.44
2019-05-13T09:21:42.295Z,102520.48
2019-05-13T09:24:36.670Z,102528.86
2019-05-13T09:27:19.168Z,102530.12
2019-05-13T09:30:06.056Z,102518.28
2019-05-13T09:32:52.499Z,102512.81
2019-05-13T09:35:39.134Z,102518.59
2019-05-13T09:38:25.255Z,102516.30
2019-05-13T09:41:12.500Z,102526.52
2019-05-13T09:43:58.879Z,102525.95
2019-05-13T09:46:46.144Z,102536.77
2019-05-13T09:49:33.040Z,102531.42
2019-05-13T09:52:22.423Z,102526.17
2019-05-13T09:55:24.421Z,102530.86
2019-05-13T09:57:57.375Z,102524.59
2019-05-13T10:00:43.998Z,102530.08
2019-05-13T10:03:33.003Z,102521.95
2019-05-13T10:06:22.230Z,102531.82
2019-05-13T10:09:12.613Z,102527.41
2019-05-13T10:11:58.740Z,102512.10
2019-05-13T10:14:48.124Z,102523.92
2019-05-13T10:17:34.595Z,102520.45
2019-05-13T10:20:46.654Z,102513.81
2019-05-13T10:23:33.462Z,102508.00
2019-05-13T10:26:25.136Z,102502.98
2019-05-13T10:29:11.989Z,102496.25
2019-05-13T10:32:02.109Z,102494.41
2019-05-13T10:35:15.048Z,102504.53
2019-05-13T10:38:04.354Z,102507.14
2019-05-13T10:40:51.961Z,102509.57
2019-05-13T10:43:41.453Z,102505.26
2019-05-13T10:46:28.618Z,102505.41
2019-05-13T10:49:17.596Z,102517.20
2019-05-13T10:52:07.059Z,102513.45
2019-05-13T10:55:02.146Z,102493.51
2019-05-13T10:57:51.380Z,102478.78
2019-05-13T11:00:46.076Z,102476.19
2019-05-13T11:03:47.936Z,102474.92
2019-05-13T11:06:36.675Z,102470.37
2019-05-13T11:09:23.236Z,102497.31
2019-05-13T11:12:12.157Z,102483.91
2019-05-13T11:14:59.023Z,102475.78
2019-05-13T11:17:52.720Z,102470.02
2019-05-13T11:21:22.370Z,102456.69
2019-05-13T11:24:51.696Z,102456.06
2019-05-13T11:27:37.197Z,102458.58
2019-05-13T11:30:23.996Z,102471.70
2019-05-13T11:33:11.056Z,102475.03
2019-05-13T11:35:56.835Z,102469.92
2019-05-13T11:38:43.410Z,102471.89
2019-05-13T11:41:32.619Z,102466.42
2019-05-13T11:44:21.893Z,102451.83
2019-05-13T11:47:14.876Z,102451.20
2019-05-13T11:50:03.846Z,102458.75
2019-05-13T11:52:53.477Z,102442.55
2019-05-13T11:55:42.561Z,102454.42
2019-05-13T11:58:33.079Z,102451.55
2019-05-13T12:01:22.854Z,102458.80
2019-05-13T12:04:10.798Z,102445.62
2019-05-13T12:06:57.175Z,102435.97
2019-05-13T12:09:43.519Z,102428.52
2019-05-13T12:12:34.460Z,102434.38
2019-05-13T12:18:12.622Z,102420.65
2019-05-13T12:20:58.736Z,102423.14
2019-05-13T12:24:09.156Z,102425.75
2019-05-13T12:26:55.614Z,102425.12
2019-05-13T12:29:37.795Z,102404.99
2019-05-13T12:32:24.805Z,102414.90
2019-05-13T12:35:13.380Z,102418.12
2019-05-13T12:38:00.143Z,102406.59
2019-05-13T12:40:46.956Z,102414.22
2019-05-13T12:43:33.679Z,102393.94
2019-05-13T12:46:24.818Z,102388.55
2019-05-13T12:49:14.232Z,102390.72
2019-05-13T12:52:04.379Z,102384.58
2019-05-13T12:54:49.316Z,102384.09
2019-05-13T12:57:38.635Z,102369.50
2019-05-13T13:00:32.994Z,102377.84
2019-05-13T13:03:22.307Z,102371.61
2019-05-13T13:06:32.446Z,102366.48
2019-05-13T13:08:56.615Z,102358.54
2019-05-13T13:11:44.078Z,102359.07
2019-05-13T13:14:38.528Z,102356.23
2019-05-13T13:17:24.185Z,102343.00
2019-05-13T13:20:14.357Z,102346.47
2019-05-13T13:23:03.406Z,102345.55
2019-05-13T13:25:52.940Z,102346.92
2019-05-13T13:28:38.070Z,102351.95
2019-05-13T13:31:25.565Z,102355.47
2019-05-13T13:34:18.554Z,102356.98
2019-05-13T13:37:05.197Z,102362.92
2019-05-13T13:39:55.207Z,102356.92
2019-05-13T13:42:44.803Z,102349.55
2019-05-13T13:45:36.779Z,102357.80
2019-05-13T13:48:24.933Z,102332.64
2019-05-13T13:51:08.646Z,102337.94
2019-05-13T13:53:56.737Z,102321.06
2019-05-13T13:56:44.903Z,102321.31
2019-05-13T14:00:14.187Z,102316.70
2019-05-13T14:02:37.029Z,102321.25
2019-05-13T14:05:25.889Z,102331.34
2019-05-13T14:07:05.462Z,102423.02
2019-05-13T14:08:21.631Z,102332.26
2019-05-13T14:11:11.955Z,102338.95
2019-05-13T14:13:58.259Z,102331.98
2019-05-13T14:16:52.916Z,102321.92
2019-05-13T14:19:53.615Z,102319.27
2019-05-13T14:23:02.480Z,102329.08
2019-05-13T14:25:55.955Z,102315.03
2019-05-13T14:28:48.327Z,102308.17
2019-05-13T14:31:36.090Z,102311.03
2019-05-13T14:34:47.401Z,102302.78
2019-05-13T14:37:58.414Z,102300.61
2019-05-13T14:40:45.050Z,102301.44
2019-05-13T14:43:42.356Z,102299.47
2019-05-13T14:46:43.992Z,102295.41
2019-05-13T14:49:16.801Z,102304.45
2019-05-13T14:52:03.074Z,102292.03
2019-05-13T14:54:51.417Z,102286.02
2019-05-13T14:57:38.038Z,102292.62
2019-05-13T15:00:24.976Z,102292.87
2019-05-13T15:03:13.050Z,102287.13
2019-05-13T15:06:01.562Z,102294.36
2019-05-13T15:08:47.776Z,102295.95
2019-05-13T15:11:33.997Z,102299.53
2019-05-13T15:14:21.974Z,102297.66
2019-05-13T15:17:08.808Z,102291.59
2019-05-13T15:19:55.105Z,102286.82
2019-05-13T15:22:42.420Z,102274.31
2019-05-13T15:25:31.284Z,102278.98
2019-05-13T15:28:17.075Z,102287.66
2019-05-13T15:31:03.460Z,102281.92
2019-05-13T15:33:52.475Z,102289.95
2019-05-13T15:36:38.195Z,102291.05
2019-05-13T15:39:24.716Z,102279.92
2019-05-13T15:42:12.035Z,102274.15
2019-05-13T15:44:58.543Z,102279.55
2019-05-13T15:47:45.004Z,102268.56
2019-05-13T15:50:31.963Z,102268.97
2019-05-13T15:53:21.228Z,102255.68
2019-05-13T15:56:06.896Z,102263.95
2019-05-13T15:58:53.450Z,102258.97
2019-05-13T16:01:41.452Z,102265.03
2019-05-13T16:04:28.456Z,102264.97
2019-05-13T16:07:14.496Z,102254.80
2019-05-13T16:10:01.979Z,102251.70
2019-05-13T16:12:48.855Z,102251.12
2019-05-13T16:15:34.904Z,102250.77
2019-05-13T16:18:22.211Z,102260.72
2019-05-13T16:21:08.875Z,102254.98
2019-05-13T16:23:54.917Z,102260.56
2019-05-13T16:26:42.837Z,102271.09
2019-05-13T16:29:31.414Z,102269.33
2019-05-13T16:32:17.263Z,102277.30
2019-05-13T16:35:03.862Z,102276.23
2019-05-13T16:37:50.357Z,102267.14
2019-05-13T16:40:36.930Z,102277.00
2019-05-13T16:43:23.695Z,102269.58
2019-05-13T16:46:12.211Z,102268.95
2019-05-13T16:48:58.315Z,102264.55
2019-05-13T16:51:44.736Z,102280.56
2019-05-13T16:54:32.846Z,102279.38
2019-05-13T16:57:18.936Z,102290.95
2019-05-13T17:00:05.156Z,102284.41
2019-05-13T17:02:51.948Z,102278.00
2019-05-13T17:05:38.219Z,102271.81
2019-05-13T17:08:24.377Z,102272.86
2019-05-13T17:11:11.737Z,102274.39
2019-05-13T17:13:58.198Z,102272.35
2019-05-13T17:16:44.436Z,102268.98
2019-05-13T17:19:31.807Z,102279.77
2019-05-13T17:22:18.276Z,102275.67
2019-05-13T17:25:04.496Z,102265.17
2019-05-13T17:27:51.547Z,102270.31
2019-05-13T17:30:37.896Z,102268.31
2019-05-13T17:33:23.996Z,102278.06
2019-05-13T17:36:12.368Z,102273.31
2019-05-13T17:38:58.495Z,102278.87
2019-05-13T17:41:44.615Z,102277.55
2019-05-13T17:44:32.028Z,102271.17
2019-05-13T17:47:18.495Z,102275.86
2019-05-13T17:50:04.957Z,102280.81
2019-05-13T17:52:51.597Z,102281.55
2019-05-13T17:55:38.115Z,102285.34
2019-05-13T17:58:24.472Z,102291.92
2019-05-13T18:01:12.051Z,102286.83
2019-05-13T18:03:58.737Z,102284.18
2019-05-13T18:06:44.955Z,102286.66
2019-05-13T18:09:32.071Z,102286.66
2019-05-13T18:12:18.463Z,102280.99
2019-05-13T18:15:04.916Z,102277.77
2019-05-13T18:17:52.308Z,102287.39
2019-05-13T18:20:38.595Z,102282.28
2019-05-13T18:23:24.796Z,102284.72
2019-05-13T18:26:12.429Z,102288.77
2019-05-13T18:28:59.097Z,102287.50
2019-05-13T18:31:45.604Z,102293.00
2019-05-13T18:34:32.314Z,102298.02
2019-05-13T18:37:18.476Z,102295.16
2019-05-13T18:40:05.436Z,102298.64
2019-05-13T18:42:52.298Z,102301.17
2019-05-13T18:45:38.716Z,102309.62
2019-05-13T18:48:24.714Z,102314.29
2019-05-13T18:51:11.852Z,102318.07
2019-05-13T18:53:58.142Z,102306.23
2019-05-13T18:56:46.524Z,102317.09
2019-05-13T18:59:32.712Z,102310.34
2019-05-13T19:02:21.276Z,102310.82
2019-05-13T19:05:07.233Z,102313.77
2019-05-13T19:07:53.417Z,102313.73
2019-05-13T19:10:41.384Z,102315.66
2019-05-13T19:13:27.444Z,102319.38
2019-05-13T19:16:13.679Z,102321.75
2019-05-13T19:19:11.839Z,102325.16
2019-05-13T19:21:47.713Z,102330.69
2019-05-13T19:24:34.059Z,102338.68
2019-05-13T19:27:21.624Z,102338.30
2019-05-13T19:30:11.884Z,102342.10
2019-05-13T19:32:57.779Z,102342.05
2019-05-13T19:35:44.171Z,102347.94
2019-05-13T19:38:31.855Z,102348.48
2019-05-13T19:41:19.115Z,102357.24
2019-05-13T19:44:05.498Z,102356.68
2019-05-13T19:46:52.347Z,102358.93
2019-05-13T19:49:41.991Z,102364.56
2019-05-13T19:52:27.152Z,102361.09
2019-05-13T19:55:14.628Z,102359.99
2019-05-13T19:58:01.828Z,102359.77
2019-05-13T20:00:48.047Z,102364.31
2019-05-13T20:03:34.291Z,102358.70
2019-05-13T20:06:21.441Z,102364.92
2019-05-13T20:09:07.459Z,102366.09
2019-05-13T20:11:55.335Z,102373.55
2019-05-13T20:14:41.926Z,102377.95
2019-05-13T20:17:28.305Z,102382.84
2019-05-13T20:20:14.719Z,102382.89
2019-05-13T20:23:01.358Z,102385.66
2019-05-13T20:25:52.197Z,102387.14
2019-05-13T20:28:38.524Z,102389.86
2019-05-13T20:31:24.888Z,102386.26
2019-05-13T20:34:11.809Z,102385.55
2019-05-13T20:36:58.171Z,102384.48
2019-05-13T20:39:44.455Z,102388.75
2019-05-13T20:42:30.746Z,102396.67
2019-05-13T20:45:16.921Z,102397.44
2019-05-13T20:48:04.030Z,102395.94
2019-05-13T20:50:51.920Z,102392.92
2019-05-13T20:53:38.380Z,102391.05
2019-05-13T20:56:24.569Z,102396.79
2019-05-13T20:59:10.616Z,102401.72
2019-05-13T21:01:56.769Z,102397.07
2019-05-13T21:04:42.959Z,102400.14
2019-05-13T21:07:29.114Z,102407.81
2019-05-13T21:10:15.346Z,102395.08
2019-05-13T21:13:02.779Z,102397.62
2019-05-13T21:15:48.949Z,102398.07
2019-05-13T21:18:35.840Z,102401.49
2019-05-13T21:21:22.264Z,102407.42
2019-05-13T21:24:08.254Z,102399.77
2019-05-13T21:26:54.609Z,102407.22
2019-05-13T21:29:41.350Z,102404.34
2019-05-13T21:32:28.070Z,102407.06
2019-05-13T21:35:14.468Z,102409.94
2019-05-13T21:38:01.688Z,102400.77
2019-05-13T21:40:48.048Z,102402.91
2019-05-13T21:43:34.281Z,102408.05
2019-05-13T21:46:21.272Z,102403.88
2019-05-13T21:49:07.660Z,102400.98
2019-05-13T21:51:54.095Z,102400.27
2019-05-13T21:54:42.187Z,102398.95
2019-05-13T21:57:28.461Z,102401.61
2019-05-13T22:00:23.521Z,102401.23
2019-05-13T22:03:07.969Z,102399.78
2019-05-13T22:05:54.133Z,102403.16
2019-05-13T22:08:41.236Z,102400.48
2019-05-13T22:11:27.563Z,102403.84
2019-05-13T22:14:13.569Z,102396.37
2019-05-13T22:17:01.548Z,102390.13
2019-05-13T22:19:48.158Z,102393.87
2019-05-13T22:22:34.039Z,102393.76
2019-05-13T22:25:20.269Z,102396.84
2019-05-13T22:28:06.473Z,102390.45
2019-05-13T22:30:52.779Z,102390.30
2019-05-13T22:33:41.129Z,102385.79
2019-05-13T22:36:27.003Z,102391.41
2019-05-13T22:39:13.195Z,102381.75
2019-05-13T22:42:01.646Z,102391.56
2019-05-13T22:44:48.217Z,102383.83
2019-05-13T22:47:34.290Z,102386.47
2019-05-13T22:50:21.847Z,102384.92
2019-05-13T22:53:08.118Z,102372.30
2019-05-13T22:55:54.178Z,102371.47
2019-05-13T22:58:41.205Z,102379.83
2019-05-13T23:01:27.864Z,102368.23
2019-05-13T23:04:13.744Z,102367.22
2019-05-13T23:07:01.303Z,102371.25
2019-05-13T23:09:47.683Z,102366.94
2019-05-13T23:12:33.779Z,102369.13
2019-05-13T23:15:21.334Z,102368.14
2019-05-13T23:18:07.613Z,102362.72
2019-05-13T23:20:53.838Z,102362.75
2019-05-13T23:23:39.979Z,102362.08
2019-05-13T23:26:26.433Z,102351.33
2019-05-13T23:29:12.424Z,102344.70
2019-05-13T23:31:58.580Z,102338.73
2019-05-13T23:34:44.799Z,102343.92
2019-05-13T23:37:31.160Z,102347.00
2019-05-13T23:40:18.199Z,102350.81
2019-05-13T23:43:04.562Z,102351.05
2019-05-13T23:45:51.142Z,102347.19
2019-05-13T23:48:37.730Z,102353.04
2019-05-13T23:51:24.171Z,102350.09
2019-05-13T23:54:12.230Z,102345.79
2019-05-13T23:56:58.574Z,102340.64
2019-05-13T23:59:44.894Z,102335.89
